Time;durP1;ratioP1;P1;durP2;ratioP2;P2;SDS_P1;SDS_P2;PMS_P1;PMS_P2;Temp;Humidity;BMP_temperature;BMP_pressure;BME280_temperature;BME280_humidity;BME280_pressure;Samples;Min_cycle;Max_cycle;Signal;HPM_P1;HPM_P2
2022/09/03 00:00:08;;;;;;;54.05;26.52;;;;;;;16.85;95.09;92535.00;5028592;28;20030;-75
2022/09/03 00:02:44;;;;;;;59.80;29.30;;;;;;;16.82;94.83;92526.94;5028392;28;20495;-75
2022/09/03 00:05:20;;;;;;;52.72;26.08;;;;;;;16.82;95.90;92533.00;5011014;28;20044;-74
2022/09/03 00:07:54;;;;;;;45.13;20.75;;;;;;;16.81;95.20;92539.38;5012146;28;20034;-75
2022/09/03 00:10:43;;;;;;;37.30;20.38;;;;;;;16.82;95.80;92542.81;5012266;28;20433;-75
2022/09/03 00:13:15;;;;;;;48.83;25.35;;;;;;;16.82;95.45;92538.28;5012369;28;20038;-74
2022/09/03 00:15:42;;;;;;;57.50;28.83;;;;;;;16.81;95.31;92531.44;5013737;28;20037;-74
2022/09/03 00:18:15;;;;;;;52.25;26.90;;;;;;;16.78;95.69;92521.50;5029391;28;20029;-75
2022/09/03 00:20:46;;;;;;;46.55;24.13;;;;;;;16.76;95.99;92518.41;4998017;28;20037;-75
2022/09/03 00:23:25;;;;;;;46.75;20.52;;;;;;;16.71;94.00;92512.53;5028946;28;20022;-75
2022/09/03 00:26:16;;;;;;;31.02;17.20;;;;;;;16.64;93.61;92515.72;5013324;28;20034;-74
2022/09/03 00:28:53;;;;;;;30.08;16.27;;;;;;;16.64;93.79;92523.63;5013906;28;20052;-74
2022/09/03 00:31:28;;;;;;;33.28;18.85;;;;;;;16.65;94.28;92519.88;4996482;28;20038;-75
2022/09/03 00:34:04;;;;;;;45.30;18.90;;;;;;;16.64;95.71;92524.41;5011302;28;20034;-75
2022/09/03 00:36:42;;;;;;;39.53;19.92;;;;;;;16.66;95.69;92521.41;5012617;28;20026;-75
2022/09/03 00:39:11;;;;;;;45.05;21.83;;;;;;;16.73;95.54;92526.97;5001348;28;20120;-76
2022/09/03 00:41:47;;;;;;;65.43;31.80;;;;;;;16.79;93.20;92519.63;5027603;28;20030;-75
2022/09/03 00:44:50;;;;;;;63.08;29.52;;;;;;;16.76;94.62;92521.03;5027862;28;20040;-74
2022/09/03 00:47:23;;;;;;;53.63;26.65;;;;;;;16.78;94.38;92518.09;4993676;28;20121;-75
2022/09/03 00:50:02;;;;;;;88.35;40.17;;;;;;;16.73;93.37;92521.69;4992885;28;20049;-76
2022/09/03 00:52:38;;;;;;;91.75;39.67;;;;;;;16.87;92.55;92531.25;4993152;28;20042;-75
2022/09/03 00:55:46;;;;;;;78.65;32.75;;;;;;;16.83;93.08;92523.19;5017260;28;20033;-75
2022/09/03 00:59:00;;;;;;;78.25;33.95;;;;;;;16.81;93.62;92528.78;4978300;28;20140;-76
2022/09/03 01:01:57;;;;;;;101.75;40.20;;;;;;;16.96;91.47;92524.03;5006104;28;20646;-76
2022/09/03 01:04:27;;;;;;;81.07;35.67;;;;;;;16.89;91.62;92534.34;5009701;28;20034;-76
2022/09/03 01:07:02;;;;;;;82.93;39.58;;;;;;;16.95;90.85;92533.81;4993666;28;20415;-76
2022/09/03 01:09:52;;;;;;;87.82;39.03;;;;;;;16.93;91.19;92529.94;5008106;28;20045;-75
2022/09/03 01:12:32;;;;;;;91.63;39.17;;;;;;;16.82;91.71;92525.06;5006335;28;20034;-75
2022/09/03 01:15:10;;;;;;;81.47;36.20;;;;;;;16.97;89.83;92536.16;5010089;28;20042;-75
2022/09/03 01:18:10;;;;;;;54.90;25.50;;;;;;;16.94;88.24;92537.56;5010028;28;20125;-75
2022/09/03 01:21:23;;;;;;;49.90;25.73;;;;;;;16.94;86.94;92539.44;5026498;28;20045;-75
2022/09/03 01:24:07;;;;;;;60.42;29.65;;;;;;;16.84;88.56;92544.03;5009778;28;20034;-75
2022/09/03 01:26:36;;;;;;;60.92;28.63;;;;;;;16.80;88.16;92545.78;5010998;28;20038;-75
2022/09/03 01:29:06;;;;;;;56.50;26.63;;;;;;;16.77;87.28;92542.94;5009774;28;20108;-75
2022/09/03 01:32:15;;;;;;;54.17;26.77;;;;;;;16.76;87.29;92546.72;5011195;28;20038;-75
2022/09/03 01:35:16;;;;;;;56.45;25.85;;;;;;;16.70;87.37;92542.69;5026127;28;20030;-75
2022/09/03 01:37:51;;;;;;;55.75;27.20;;;;;;;16.61;88.00;92555.97;4997880;28;20046;-75
2022/09/03 01:40:38;;;;;;;54.42;25.42;;;;;;;16.57;90.93;92560.34;4991395;28;20492;-75
2022/09/03 01:43:18;;;;;;;45.33;22.90;;;;;;;16.65;90.38;92557.66;4995711;28;20041;-75
2022/09/03 01:45:48;;;;;;;51.75;26.92;;;;;;;16.63;88.30;92562.47;5007712;28;20034;-76
2022/09/03 01:48:29;;;;;;;52.50;23.55;;;;;;;16.40;90.33;92567.28;5001167;28;20033;-75
2022/09/03 01:51:18;;;;;;;60.50;28.25;;;;;;;16.27;92.49;92562.25;5005554;28;20489;-75
2022/09/03 01:54:12;;;;;;;56.67;28.95;;;;;;;16.19;93.78;92569.13;5002283;28;20038;-76
2022/09/03 01:57:07;;;;;;;70.30;29.58;;;;;;;16.09;95.22;92572.88;5010997;28;20116;-75
2022/09/03 01:59:45;;;;;;;50.70;24.63;;;;;;;16.04;95.52;92575.72;4993337;28;20087;-75
2022/09/03 02:02:20;;;;;;;52.65;24.83;;;;;;;16.03;96.28;92582.84;5010447;28;20456;-75
2022/09/03 02:05:01;;;;;;;48.30;25.65;;;;;;;16.05;96.58;92593.09;5006231;28;20042;-76
2022/09/03 02:07:32;;;;;;;44.13;22.65;;;;;;;15.92;97.15;92589.59;4988839;28;20038;-75
2022/09/03 02:10:00;;;;;;;47.97;24.27;;;;;;;15.85;97.40;92589.31;5008917;28;20042;-75
2022/09/03 02:12:32;;;;;;;48.78;25.25;;;;;;;15.90;97.20;92586.47;5009883;28;20113;-75
2022/09/03 02:15:10;;;;;;;46.60;24.80;;;;;;;15.88;96.90;92587.88;5013138;28;20050;-76
2022/09/03 02:17:36;;;;;;;51.60;26.63;;;;;;;15.99;95.56;92581.94;5013371;28;20029;-76
2022/09/03 02:20:10;;;;;;;56.55;27.02;;;;;;;15.98;93.37;92593.56;5027689;28;20430;-76
2022/09/03 02:22:39;;;;;;;57.55;28.00;;;;;;;15.90;93.58;92597.03;5010852;28;20458;-76
2022/09/03 02:25:06;;;;;;;58.50;30.00;;;;;;;15.93;92.39;92596.41;5013907;28;20040;-75
2022/09/03 02:27:32;;;;;;;54.72;28.13;;;;;;;15.77;93.70;92603.28;5013867;28;20038;-75
2022/09/03 02:29:59;;;;;;;53.17;29.42;;;;;;;15.71;94.11;92597.38;5000249;28;20141;-75
2022/09/03 02:32:25;;;;;;;59.40;30.27;;;;;;;15.90;92.47;92591.75;5014432;28;20540;-75
2022/09/03 02:34:51;;;;;;;61.28;29.40;;;;;;;15.66;92.89;92588.84;5013620;28;20041;-75
2022/09/03 02:37:18;;;;;;;59.20;30.58;;;;;;;15.67;93.15;92593.81;5028898;28;20022;-76
2022/09/03 02:39:44;;;;;;;59.50;28.58;;;;;;;15.69;92.87;92582.94;5009300;28;20120;-76
2022/09/03 02:42:12;;;;;;;58.58;27.55;;;;;;;15.67;93.85;92593.81;5009421;28;20076;-75
2022/09/03 02:44:46;;;;;;;51.83;28.85;;;;;;;15.78;93.53;92596.91;5012244;28;20108;-76
2022/09/03 02:47:11;;;;;;;61.58;29.23;;;;;;;15.70;93.50;92602.97;5013848;28;20164;-75
2022/09/03 02:49:37;;;;;;;68.20;29.48;;;;;;;15.67;94.18;92598.31;5028214;28;20042;-75
2022/09/03 02:52:08;;;;;;;58.40;30.38;;;;;;;15.62;94.72;92597.38;4977560;28;20092;-75
2022/09/03 02:54:38;;;;;;;52.35;28.27;;;;;;;15.61;95.04;92593.19;5011396;28;20045;-75
2022/09/03 02:57:22;;;;;;;59.00;28.80;;;;;;;15.61;95.22;92590.56;5025132;28;20108;-75
2022/09/03 02:59:47;;;;;;;62.40;29.20;;;;;;;15.61;95.04;92589.78;5018437;28;20046;-76
2022/09/03 03:02:13;;;;;;;64.75;29.23;;;;;;;15.58;94.86;92585.94;5013202;28;20049;-76
2022/09/03 03:04:39;;;;;;;63.65;30.38;;;;;;;15.60;94.66;92588.22;5012495;28;20042;-75
2022/09/03 03:07:06;;;;;;;55.67;29.92;;;;;;;15.60;95.48;92583.75;5011130;28;20511;-76
2022/09/03 03:09:31;;;;;;;58.97;28.83;;;;;;;15.63;96.50;92582.34;4976870;28;20042;-75
2022/09/03 03:11:57;;;;;;;66.25;28.70;;;;;;;15.65;96.45;92582.00;4992186;28;20045;-74
2022/09/03 03:14:22;;;;;;;58.60;29.83;;;;;;;15.66;96.91;92586.22;5008324;28;20050;-75
2022/09/03 03:16:49;;;;;;;59.80;29.75;;;;;;;15.65;97.48;92579.38;5024889;28;20087;-75
2022/09/03 03:19:15;;;;;;;59.15;28.98;;;;;;;15.66;97.59;92575.66;5023374;28;20034;-75
2022/09/03 03:21:40;;;;;;;54.15;27.95;;;;;;;15.67;97.56;92578.00;4993546;28;20460;-75
2022/09/03 03:24:06;;;;;;;59.33;26.02;;;;;;;15.67;98.44;92574.56;4975287;28;20081;-75
2022/09/03 03:26:32;;;;;;;57.05;27.73;;;;;;;15.67;100.00;92567.44;4991997;28;20038;-75
2022/09/03 03:29:03;;;;;;;50.72;27.95;;;;;;;15.68;100.00;92571.63;4993333;28;20096;-75
2022/09/03 03:31:29;;;;;;;59.60;27.15;;;;;;;15.72;100.00;92563.88;5007941;28;20120;-75
2022/09/03 03:34:01;;;;;;;57.53;28.13;;;;;;;15.71;100.00;92565.72;5012821;28;20201;-75
2022/09/03 03:36:29;;;;;;;58.85;28.00;;;;;;;15.71;100.00;92568.34;5012826;28;20076;-75
2022/09/03 03:38:57;;;;;;;58.47;28.38;;;;;;;15.70;100.00;92566.03;5012746;28;20038;-75
2022/09/03 03:41:27;;;;;;;56.47;27.70;;;;;;;15.71;100.00;92564.94;5011041;28;20069;-76
2022/09/03 03:43:58;;;;;;;47.08;24.58;;;;;;;15.69;100.00;92561.81;5012214;28;20084;-76
2022/09/03 03:46:27;;;;;;;54.85;25.00;;;;;;;15.70;100.00;92560.75;5010542;28;20038;-75
2022/09/03 03:48:53;;;;;;;58.55;26.63;;;;;;;15.66;100.00;92559.81;5009054;28;20026;-76
2022/09/03 03:51:18;;;;;;;58.17;26.77;;;;;;;15.60;100.00;92562.63;4998316;28;20048;-75
2022/09/03 03:53:45;;;;;;;46.20;26.10;;;;;;;15.59;100.00;92555.81;5010887;28;20042;-75
2022/09/03 03:56:13;;;;;;;58.97;28.15;;;;;;;15.63;100.00;92563.88;5002519;28;20125;-75
2022/09/03 03:58:43;;;;;;;54.65;27.80;;;;;;;15.55;100.00;92554.88;5019966;28;20040;-74
2022/09/03 04:01:14;;;;;;;52.75;26.45;;;;;;;15.56;100.00;92563.59;5028045;28;20038;-74
2022/09/03 04:03:41;;;;;;;65.45;28.80;;;;;;;15.54;100.00;92555.97;5008991;28;20084;-73
2022/09/03 04:06:09;;;;;;;54.47;27.70;;;;;;;15.55;100.00;92554.88;5008313;28;20026;-74
2022/09/03 04:08:37;;;;;;;56.92;27.13;;;;;;;15.56;100.00;92556.44;5026143;28;20411;-74
2022/09/03 04:11:05;;;;;;;55.92;27.35;;;;;;;15.53;100.00;92559.69;5011219;28;20163;-72
2022/09/03 04:13:32;;;;;;;57.95;28.13;;;;;;;15.49;100.00;92556.16;5011205;28;20045;-74
2022/09/03 04:16:03;;;;;;;58.70;28.95;;;;;;;15.47;100.00;92547.78;5011936;28;20050;-74
2022/09/03 04:18:30;;;;;;;54.42;26.38;;;;;;;15.47;100.00;92552.25;5009814;28;20037;-74
2022/09/03 04:21:04;;;;;;;51.58;27.80;;;;;;;15.47;100.00;92547.78;5009186;28;20388;-74
2022/09/03 04:23:41;;;;;;;54.45;28.75;;;;;;;15.45;100.00;92547.31;5010769;28;20116;-74
2022/09/03 04:26:09;;;;;;;54.38;27.95;;;;;;;15.48;100.00;92543.28;5007923;28;20054;-74
2022/09/03 04:28:35;;;;;;;65.60;30.75;;;;;;;15.49;100.00;92544.81;5015175;28;20040;-74
2022/09/03 04:31:08;;;;;;;58.60;28.08;;;;;;;15.50;100.00;92535.81;5028475;28;20065;-74
2022/09/03 04:33:36;;;;;;;56.97;28.88;;;;;;;15.48;100.00;92544.03;5009730;28;20034;-74
2022/09/03 04:36:12;;;;;;;57.83;28.83;;;;;;;15.47;100.00;92546.97;5008863;28;20034;-74
2022/09/03 04:38:40;;;;;;;66.10;30.08;;;;;;;15.46;100.00;92542.81;5010550;28;20069;-74
2022/09/03 04:41:08;;;;;;;61.45;29.90;;;;;;;15.40;100.00;92547.47;5010826;28;20480;-73
2022/09/03 04:43:35;;;;;;;58.55;29.35;;;;;;;15.34;100.00;92538.94;5024502;28;20116;-74
2022/09/03 04:46:03;;;;;;;61.33;29.30;;;;;;;15.33;100.00;92542.69;5005778;28;20046;-75
2022/09/03 04:48:30;;;;;;;68.50;31.77;;;;;;;15.33;100.00;92539.25;5010343;28;20033;-76
2022/09/03 04:51:12;;;;;;;63.75;31.40;;;;;;;15.33;100.00;92539.25;5027004;28;20115;-76
2022/09/03 04:53:40;;;;;;;68.20;31.77;;;;;;;15.34;100.00;92540.81;5016870;28;20060;-76
2022/09/03 04:56:12;;;;;;;68.75;30.20;;;;;;;15.31;100.00;92549.34;5012795;28;20025;-75
2022/09/03 04:58:38;;;;;;;61.88;30.05;;;;;;;15.30;100.00;92547.81;5010649;28;20046;-75
2022/09/03 05:01:12;;;;;;;64.45;32.10;;;;;;;15.32;100.00;92550.91;5011868;28;20404;-75
2022/09/03 05:03:38;;;;;;;65.57;31.63;;;;;;;15.28;100.00;92557.88;5011670;28;20034;-76
2022/09/03 05:06:04;;;;;;;65.22;30.23;;;;;;;15.27;100.00;92559.75;5010718;28;20026;-72
2022/09/03 05:08:31;;;;;;;55.70;27.45;;;;;;;15.26;100.00;92554.78;5011900;28;20044;-75
2022/09/03 05:11:00;;;;;;;62.90;29.15;;;;;;;15.26;100.00;92570.59;5010039;28;20050;-75
2022/09/03 05:13:27;;;;;;;67.70;28.33;;;;;;;15.20;100.00;92573.41;5010507;28;20034;-75
2022/09/03 05:15:58;;;;;;;53.72;27.60;;;;;;;15.14;100.00;92572.03;5009928;28;20033;-76
2022/09/03 05:18:23;;;;;;;50.90;22.45;;;;;;;15.12;100.00;92584.72;5016633;28;20041;-75
2022/09/03 05:20:57;;;;;;;51.20;22.27;;;;;;;15.11;100.00;92583.19;5012450;28;20033;-75
2022/09/03 05:23:23;;;;;;;51.25;23.88;;;;;;;15.09;100.00;92566.16;4990373;28;20044;-75
2022/09/03 05:26:01;;;;;;;59.00;26.45;;;;;;;15.08;100.00;92572.50;4991566;28;20038;-75
2022/09/03 05:28:29;;;;;;;66.10;30.40;;;;;;;15.04;100.00;92576.81;4994215;28;20492;-75
2022/09/03 05:31:00;;;;;;;76.10;33.10;;;;;;;15.04;100.00;92571.56;5031138;28;20051;-75
2022/09/03 05:33:26;;;;;;;78.72;35.08;;;;;;;15.04;100.00;92577.63;5029980;28;20065;-76
2022/09/03 05:35:54;;;;;;;72.88;34.08;;;;;;;15.01;100.00;92583.50;5030995;28;20087;-76
2022/09/03 05:38:19;;;;;;;72.82;34.83;;;;;;;14.97;100.00;92578.09;5012393;28;20034;-75
2022/09/03 05:40:45;;;;;;;74.93;35.67;;;;;;;15.00;100.00;92576.69;5011234;28;20052;-76
2022/09/03 05:43:11;;;;;;;70.90;32.03;;;;;;;15.03;100.00;92575.28;5009855;28;20045;-76
2022/09/03 05:45:36;;;;;;;66.65;31.52;;;;;;;15.07;100.00;92582.25;5011549;28;20037;-76
2022/09/03 05:48:02;;;;;;;54.50;28.10;;;;;;;15.04;100.00;92580.25;5011650;28;20046;-75
2022/09/03 05:50:27;;;;;;;58.78;28.27;;;;;;;15.03;100.00;92577.94;5013962;28;20118;-76
2022/09/03 05:52:53;;;;;;;56.35;28.42;;;;;;;14.98;100.00;92584.13;4997755;28;20041;-76
2022/09/03 05:55:18;;;;;;;55.30;27.58;;;;;;;14.97;100.00;92580.72;5015155;28;20042;-76
2022/09/03 05:57:44;;;;;;;61.92;29.52;;;;;;;15.00;100.00;92592.50;5013710;28;20038;-76
2022/09/03 06:00:11;;;;;;;57.00;28.08;;;;;;;15.02;100.00;92586.91;5013511;28;20060;-76
2022/09/03 06:02:37;;;;;;;52.22;25.95;;;;;;;15.01;100.00;92588.78;5014987;28;20038;-76
2022/09/03 06:05:03;;;;;;;61.58;28.65;;;;;;;15.00;100.00;92595.13;5013668;28;20073;-75
2022/09/03 06:07:29;;;;;;;57.60;29.08;;;;;;;15.03;100.00;92588.47;4997065;28;20121;-75
2022/09/03 06:09:55;;;;;;;55.35;28.55;;;;;;;14.99;100.00;92590.94;5014683;28;20044;-76
2022/09/03 06:12:20;;;;;;;58.95;28.33;;;;;;;15.01;100.00;92588.78;4981199;28;20057;-77
2022/09/03 06:14:46;;;;;;;52.80;26.77;;;;;;;15.01;100.00;92583.50;4997036;28;20046;-76
2022/09/03 06:17:13;;;;;;;54.58;27.40;;;;;;;15.02;100.00;92574.53;5014692;28;20038;-76
2022/09/03 06:19:39;;;;;;;51.53;26.10;;;;;;;15.01;100.00;92586.13;5013989;28;20044;-76
2022/09/03 06:22:04;;;;;;;60.85;27.23;;;;;;;15.00;100.00;92579.31;5014689;28;20042;-75
2022/09/03 06:24:30;;;;;;;51.35;27.95;;;;;;;15.01;100.00;92583.50;5013405;28;20201;-76
2022/09/03 06:26:56;;;;;;;50.47;26.52;;;;;;;15.05;100.00;92579.16;4996927;28;20038;-76
2022/09/03 06:29:21;;;;;;;48.55;26.45;;;;;;;15.10;100.00;92580.88;5014936;28;20030;-76
2022/09/03 06:31:47;;;;;;;49.83;26.10;;;;;;;15.12;100.00;92573.41;5013353;28;20041;-75
2022/09/03 06:34:13;;;;;;;56.38;27.50;;;;;;;15.14;100.00;92585.19;5014521;28;20087;-75
2022/09/03 06:36:40;;;;;;;60.03;26.73;;;;;;;15.13;100.00;92573.13;5014466;28;20066;-75
2022/09/03 06:39:05;;;;;;;54.78;27.95;;;;;;;15.14;100.00;92587.06;5015032;28;20038;-76
2022/09/03 06:41:32;;;;;;;50.28;26.92;;;;;;;15.13;100.00;92581.03;5015994;28;20060;-77
2022/09/03 06:44:02;;;;;;;55.97;28.05;;;;;;;15.10;100.00;92592.19;5033263;28;20037;-76
2022/09/03 06:46:30;;;;;;;54.00;28.35;;;;;;;15.03;100.00;92576.06;5017494;28;20042;-77
2022/09/03 06:48:56;;;;;;;50.95;27.65;;;;;;;15.01;100.00;92580.09;5021384;28;20040;-77
2022/09/03 06:51:25;;;;;;;45.90;25.73;;;;;;;15.04;100.00;92577.63;5034859;28;20041;-77
2022/09/03 06:54:02;;;;;;;54.63;26.48;;;;;;;15.09;100.00;92584.59;5030249;28;20069;-76
2022/09/03 06:56:28;;;;;;;43.75;25.40;;;;;;;15.15;100.00;92578.84;5014747;28;20049;-76
2022/09/03 06:58:58;;;;;;;49.55;26.05;;;;;;;15.20;100.00;92580.56;5012798;28;20569;-76
2022/09/03 07:01:27;;;;;;;47.72;26.75;;;;;;;15.22;100.00;92577.59;5013968;28;20040;-76
2022/09/03 07:04:00;;;;;;;52.78;28.55;;;;;;;15.07;100.00;92582.25;5013935;28;20022;-75
2022/09/03 07:06:29;;;;;;;44.75;25.60;;;;;;;15.16;100.00;92580.41;5013694;28;20034;-75
2022/09/03 07:08:56;;;;;;;43.55;24.58;;;;;;;15.20;100.00;92580.56;5013907;28;20064;-76
2022/09/03 07:11:26;;;;;;;41.85;23.50;;;;;;;15.23;100.00;92579.16;5032593;28;20049;-76
2022/09/03 07:13:54;;;;;;;41.85;22.17;;;;;;;15.18;100.00;92578.22;5019958;28;20110;-75
2022/09/03 07:16:28;;;;;;;41.58;22.48;;;;;;;15.20;100.00;92576.06;5013359;28;20482;-75
2022/09/03 07:18:56;;;;;;;39.38;21.75;;;;;;;15.17;100.00;92571.38;5013546;28;20034;-76
2022/09/03 07:21:24;;;;;;;33.85;20.17;;;;;;;15.18;100.00;92569.53;5012244;28;20030;-77
2022/09/03 07:23:51;;;;;;;37.80;20.45;;;;;;;15.19;100.00;92569.22;5013132;28;20053;-77
2022/09/03 07:26:21;;;;;;;31.83;20.38;;;;;;;15.20;100.00;92570.00;5013353;28;20468;-76
2022/09/03 07:28:47;;;;;;;36.05;21.65;;;;;;;15.21;100.00;92574.19;5030632;28;20033;-74
2022/09/03 07:31:18;;;;;;;33.38;19.20;;;;;;;15.24;100.00;92578.06;5031671;28;20132;-73
2022/09/03 07:33:45;;;;;;;33.83;20.50;;;;;;;15.25;100.00;92577.75;5039704;28;20033;-73
2022/09/03 07:36:13;;;;;;;26.27;18.48;;;;;;;15.29;100.00;92585.78;5013135;28;20040;-76
2022/09/03 07:38:41;;;;;;;35.38;20.15;;;;;;;15.28;100.00;92585.03;5013790;28;20029;-76
2022/09/03 07:41:08;;;;;;;28.55;19.90;;;;;;;15.30;100.00;92582.84;5015943;28;20037;-76
2022/09/03 07:43:39;;;;;;;32.17;20.00;;;;;;;15.36;100.00;92594.03;5012774;28;20030;-77
2022/09/03 07:46:21;;;;;;;32.70;19.42;;;;;;;15.40;100.00;92594.94;5012225;28;20463;-77
2022/09/03 07:48:49;;;;;;;28.48;17.88;;;;;;;15.35;100.00;92595.88;5009468;28;20021;-78
2022/09/03 07:51:16;;;;;;;29.10;19.23;;;;;;;15.35;100.00;92595.09;5020689;28;20026;-77
2022/09/03 07:53:43;;;;;;;27.23;18.15;;;;;;;15.37;100.00;92598.22;5010831;28;20038;-78
2022/09/03 07:56:09;;;;;;;23.05;15.93;;;;;;;15.39;100.00;92598.66;4992268;28;20501;-77
2022/09/03 07:58:36;;;;;;;27.95;18.55;;;;;;;15.44;100.00;92595.88;5022753;28;20055;-78
2022/09/03 08:01:11;;;;;;;30.80;19.13;;;;;;;15.58;100.00;92593.03;5011550;28;20041;-76
2022/09/03 08:03:38;;;;;;;28.40;19.13;;;;;;;15.81;100.00;92598.94;5010336;28;20057;-76
2022/09/03 08:06:06;;;;;;;21.35;15.27;;;;;;;15.92;100.00;92602.78;5013885;28;20022;-76
2022/09/03 08:08:35;;;;;;;18.60;14.27;;;;;;;15.88;100.00;92611.66;5014242;28;20030;-76
2022/09/03 08:11:09;;;;;;;20.23;14.73;;;;;;;15.72;100.00;92617.44;5010582;28;20058;-77
2022/09/03 08:13:39;;;;;;;20.55;14.65;;;;;;;15.57;100.00;92621.28;5011168;28;20373;-77
2022/09/03 08:16:06;;;;;;;19.65;14.40;;;;;;;15.48;100.00;92617.91;5013196;28;20037;-77
2022/09/03 08:18:37;;;;;;;18.40;13.40;;;;;;;15.39;100.00;92625.06;5004540;28;20086;-77
2022/09/03 08:21:12;;;;;;;20.67;14.65;;;;;;;15.34;100.00;92628.63;5013914;28;20034;-77
2022/09/03 08:23:39;;;;;;;21.58;14.90;;;;;;;15.39;100.00;92622.41;5012217;28;20049;-77
2022/09/03 08:26:06;;;;;;;18.75;12.95;;;;;;;15.39;100.00;92636.38;5023905;28;20072;-77
2022/09/03 08:28:33;;;;;;;18.52;14.13;;;;;;;15.46;100.00;92638.53;5015533;28;20034;-77
2022/09/03 08:31:20;;;;;;;18.60;13.20;;;;;;;15.47;100.00;92634.81;5008416;28;20116;-77
2022/09/03 08:33:51;;;;;;;19.95;13.77;;;;;;;15.38;100.00;92632.19;5005477;28;20407;-77
2022/09/03 08:36:22;;;;;;;21.67;14.40;;;;;;;15.46;100.00;92635.91;5027172;28;20034;-78
2022/09/03 08:38:53;;;;;;;20.55;13.77;;;;;;;15.57;100.00;92631.84;5030529;28;20041;-78
2022/09/03 08:41:28;;;;;;;25.20;14.65;;;;;;;15.73;100.00;92634.03;5028741;28;20048;-78
2022/09/03 08:44:09;;;;;;;19.33;13.48;;;;;;;15.89;100.00;92637.72;5030899;28;20041;-78
2022/09/03 08:46:37;;;;;;;16.52;12.57;;;;;;;16.01;100.00;92635.22;5006720;28;20415;-78
2022/09/03 08:49:05;;;;;;;17.77;12.07;;;;;;;16.14;100.00;92638.72;5024779;28;20102;-78
2022/09/03 08:51:32;;;;;;;19.08;12.98;;;;;;;16.24;100.00;92643.66;5018038;28;20041;-78
2022/09/03 08:53:59;;;;;;;17.55;12.75;;;;;;;16.29;100.00;92648.00;5012609;28;20048;-78
2022/09/03 08:56:30;;;;;;;19.02;12.05;;;;;;;16.32;100.00;92647.34;5011139;28;20041;-78
2022/09/03 08:58:56;;;;;;;17.90;11.25;;;;;;;16.41;100.00;92652.59;5011725;28;20041;-78
2022/09/03 09:01:40;;;;;;;13.43;10.80;;;;;;;16.48;100.00;92657.38;5018117;28;20038;-78
2022/09/03 09:04:24;;;;;;;13.82;11.05;;;;;;;16.46;100.00;92663.00;5013131;28;20032;-78
2022/09/03 09:07:17;;;;;;;12.80;9.75;;;;;;;16.49;100.00;92659.72;5002699;28;20033;-78
2022/09/03 09:09:54;;;;;;;12.02;9.00;;;;;;;16.50;100.00;92671.06;5018780;28;20029;-78
2022/09/03 09:12:30;;;;;;;787.08;22.05;;;;;;;16.34;100.00;92673.44;5014775;28;20093;-78
2022/09/03 09:14:55;;;;;;;13.10;8.30;;;;;;;16.28;100.00;92674.72;5017395;28;20507;-78
2022/09/03 09:17:39;;;;;;;10.43;8.15;;;;;;;16.33;100.00;92664.75;5010817;28;20061;-78
2022/09/03 09:20:14;;;;;;;10.93;9.02;;;;;;;16.37;100.00;92670.97;5040449;28;20033;-78
2022/09/03 09:22:49;;;;;;;14.65;8.98;;;;;;;16.55;100.00;92676.16;5002506;28;20034;-78
2022/09/03 09:25:21;;;;;;;11.68;8.45;;;;;;;16.62;100.00;92674.59;5009503;28;20030;-78
2022/09/03 09:27:54;;;;;;;13.18;9.18;;;;;;;16.76;100.00;92679.63;5013760;28;20034;-78
2022/09/03 09:30:20;;;;;;;16.45;9.35;;;;;;;16.87;100.00;92681.97;5027124;28;20037;-78
2022/09/03 09:32:46;;;;;;;12.20;9.60;;;;;;;17.00;100.00;92680.91;5017163;28;20554;-78
2022/09/03 09:35:13;;;;;;;11.80;8.95;;;;;;;17.16;100.00;92678.50;5020892;28;20091;-78
2022/09/03 09:37:53;;;;;;;14.38;9.10;;;;;;;17.38;100.00;92669.47;5013199;28;20068;-78
2022/09/03 09:40:37;;;;;;;10.30;8.10;;;;;;;17.59;100.00;92667.59;5007520;28;20385;-78
2022/09/03 09:43:21;;;;;;;295.33;13.35;;;;;;;17.42;100.00;92668.50;5010822;28;20037;-78
2022/09/03 09:45:49;;;;;;;326.02;14.70;;;;;;;17.13;100.00;92673.84;5014214;28;20071;-77
2022/09/03 09:48:28;;;;;;;64.43;9.40;;;;;;;16.78;100.00;92671.41;5019087;28;20046;-80
2022/09/03 09:51:12;;;;;;;11.50;8.75;;;;;;;16.58;100.00;92672.91;5010685;28;20034;-78
2022/09/03 09:53:41;;;;;;;13.70;9.32;;;;;;;16.60;100.00;92676.00;5033016;28;20105;-78
2022/09/03 09:56:07;;;;;;;11.65;9.43;;;;;;;16.53;100.00;92681.00;5028809;28;20040;-78
2022/09/03 09:58:34;;;;;;;150.70;12.05;;;;;;;16.42;100.00;92685.88;5026458;28;20033;-78
2022/09/03 10:01:17;;;;;;;12.32;9.50;;;;;;;16.47;100.00;92684.91;5012617;28;20096;-79
2022/09/03 10:03:57;;;;;;;11.88;9.18;;;;;;;16.57;100.00;92679.25;5028423;28;20035;-79
2022/09/03 10:09:16;;;;;;;12.35;9.13;;;;;;;16.84;100.00;92681.50;5026342;28;20034;-78
2022/09/03 10:11:46;;;;;;;11.32;8.77;;;;;;;16.62;100.00;92684.38;5009650;28;20061;-77
2022/09/03 10:14:31;;;;;;;13.82;9.32;;;;;;;16.54;100.00;92674.63;5018050;28;20415;-78
2022/09/03 10:17:09;;;;;;;12.82;8.98;;;;;;;16.43;100.00;92669.69;5016774;28;20115;-79
2022/09/03 10:20:25;;;;;;;10.70;9.35;;;;;;;16.35;100.00;92675.78;5025576;28;20025;-79
2022/09/03 10:22:45;;;;;;;14.32;9.27;;;;;;;16.37;100.00;92675.44;5029261;28;20044;-78
2022/09/03 10:25:14;;;;;;;11.38;9.25;;;;;;;16.42;100.00;92670.78;5023833;28;20072;-79
2022/09/03 10:27:40;;;;;;;12.05;9.30;;;;;;;16.62;100.00;92679.09;5030754;28;20104;-79
2022/09/03 10:30:07;;;;;;;11.63;9.43;;;;;;;16.67;100.00;92676.28;5034150;28;20046;-79
2022/09/03 10:32:57;;;;;;;11.27;8.60;;;;;;;16.88;100.00;92681.63;5019356;28;20039;-79
2022/09/03 10:35:50;;;;;;;10.85;8.55;;;;;;;16.86;100.00;92681.16;5029412;28;20563;-79
2022/09/03 10:38:25;;;;;;;10.90;9.02;;;;;;;16.99;100.00;92684.69;4998955;28;20058;-79
2022/09/03 10:40:56;;;;;;;12.13;8.25;;;;;;;17.02;100.00;92692.75;5022357;28;20660;-78
2022/09/03 10:43:45;;;;;;;10.00;8.30;;;;;;;16.99;100.00;92687.31;5027882;28;20065;-78
2022/09/03 10:46:19;;;;;;;11.50;8.05;;;;;;;17.10;100.00;92690.38;5010620;28;20056;-78
2022/09/03 10:49:04;;;;;;;10.73;8.13;;;;;;;17.12;100.00;92691.59;5021815;28;20509;-79
2022/09/03 10:51:41;;;;;;;9.38;7.13;;;;;;;17.01;98.85;92682.47;5020609;28;20034;-78
2022/09/03 10:54:22;;;;;;;9.57;6.88;;;;;;;16.87;95.56;92682.72;5033604;28;20036;-78
2022/09/03 10:57:26;;;;;;;8.75;6.28;;;;;;;16.93;96.98;92685.94;5022088;28;20031;-78
2022/09/03 11:00:09;;;;;;;9.68;6.60;;;;;;;17.05;91.49;92692.09;5026436;28;20080;-79
2022/09/03 11:02:43;;;;;;;9.05;5.93;;;;;;;17.21;83.33;92686.25;5024210;28;20041;-80
2022/09/03 11:05:20;;;;;;;10.43;6.20;;;;;;;17.21;83.28;92683.59;5029986;28;20045;-78
2022/09/03 11:07:57;;;;;;;9.43;6.32;;;;;;;17.19;88.04;92686.56;5031176;28;20619;-79
2022/09/03 11:10:32;;;;;;;10.77;7.40;;;;;;;17.09;95.54;92691.44;5036912;28;20042;-79
2022/09/03 11:13:37;;;;;;;62.50;10.27;;;;;;;17.00;100.00;92683.56;5020411;28;20029;-79
2022/09/03 11:16:14;;;;;;;10.10;8.32;;;;;;;17.11;100.00;92695.31;5022569;28;20037;-79
2022/09/03 11:18:45;;;;;;;13.43;8.82;;;;;;;17.09;100.00;92692.25;5003812;28;20030;-79
2022/09/03 11:21:15;;;;;;;9.15;7.18;;;;;;;17.24;100.00;92686.38;5026345;28;20101;-82
2022/09/03 11:23:47;;;;;;;10.70;7.38;;;;;;;17.40;99.66;92686.56;5031772;28;20084;-79
2022/09/03 11:26:16;;;;;;;;;;;;;;;17.43;99.53;92683.28;5013437;28;20093;-79
2022/09/03 11:29:19;;;;;;;13.95;7.70;;;;;;;17.59;94.48;92686.13;5022735;28;19920;-79
2022/09/03 11:31:49;;;;;;;8.95;6.63;;;;;;;17.73;90.03;92687.72;5020923;28;20048;-79
2022/09/03 11:34:27;;;;;;;9.60;6.78;;;;;;;17.86;90.44;92686.69;5019352;28;20132;-79
2022/09/03 11:37:19;;;;;;;9.85;6.78;;;;;;;18.16;98.65;92686.56;5028767;28;20534;-78
2022/09/03 11:40:11;;;;;;;9.45;7.13;;;;;;;17.73;100.00;92688.47;5015411;28;20041;-78
2022/09/03 11:42:41;;;;;;;11.20;8.48;;;;;;;17.57;100.00;92685.66;5038118;28;20397;-79